sensor_id;sensor_type;location;lat;lon;timestamp;temperature;humidity
25112;DHT22;13092;51.996;4.458;2024-03-08T00:00:41;5.60;99.90
25112;DHT22;13092;51.996;4.458;2024-03-08T00:03:09;5.40;99.90
25112;DHT22;13092;51.996;4.458;2024-03-08T00:05:38;5.60;99.90
25112;DHT22;13092;51.996;4.458;2024-03-08T00:08:07;5.40;99.90
25112;DHT22;13092;51.996;4.458;2024-03-08T00:10:37;5.50;99.90
25112;DHT22;13092;51.996;4.458;2024-03-08T00:13:06;5.30;99.90
25112;DHT22;13092;51.996;4.458;2024-03-08T00:15:34;5.40;99.90
25112;DHT22;13092;51.996;4.458;2024-03-08T00:18:04;5.40;99.90
25112;DHT22;13092;51.996;4.458;2024-03-08T00:20:33;5.30;99.90
25112;DHT22;13092;51.996;4.458;2024-03-08T00:23:01;5.40;99.90
25112;DHT22;13092;51.996;4.458;2024-03-08T00:25:29;5.50;99.90
25112;DHT22;13092;51.996;4.458;2024-03-08T00:27:57;5.60;99.90
25112;DHT22;13092;51.996;4.458;2024-03-08T00:30:27;5.70;99.90
25112;DHT22;13092;51.996;4.458;2024-03-08T00:32:55;5.30;99.90
25112;DHT22;13092;51.996;4.458;2024-03-08T00:35:25;5.40;99.90
25112;DHT22;13092;51.996;4.458;2024-03-08T00:37:53;5.30;99.90
25112;DHT22;13092;51.996;4.458;2024-03-08T00:40:23;5.40;99.90
25112;DHT22;13092;51.996;4.458;2024-03-08T00:42:51;5.40;99.90
25112;DHT22;13092;51.996;4.458;2024-03-08T00:45:21;5.20;99.90
25112;DHT22;13092;51.996;4.458;2024-03-08T00:47:50;5.10;99.90
25112;DHT22;13092;51.996;4.458;2024-03-08T00:50:18;5.70;99.90
25112;DHT22;13092;51.996;4.458;2024-03-08T00:52:48;5.50;99.90
25112;DHT22;13092;51.996;4.458;2024-03-08T00:55:17;5.00;99.90
25112;DHT22;13092;51.996;4.458;2024-03-08T00:57:45;5.60;99.90
25112;DHT22;13092;51.996;4.458;2024-03-08T01:00:14;5.30;99.90
25112;DHT22;13092;51.996;4.458;2024-03-08T01:02:42;5.20;99.90
25112;DHT22;13092;51.996;4.458;2024-03-08T01:05:10;5.20;99.90
25112;DHT22;13092;51.996;4.458;2024-03-08T01:07:39;5.10;99.90
25112;DHT22;13092;51.996;4.458;2024-03-08T01:10:09;5.40;99.90
25112;DHT22;13092;51.996;4.458;2024-03-08T01:12:38;5.10;99.90
25112;DHT22;13092;51.996;4.458;2024-03-08T01:15:07;5.30;99.90
25112;DHT22;13092;51.996;4.458;2024-03-08T01:17:36;5.10;99.90
25112;DHT22;13092;51.996;4.458;2024-03-08T01:20:06;5.10;99.90
25112;DHT22;13092;51.996;4.458;2024-03-08T01:22:34;5.00;99.90
25112;DHT22;13092;51.996;4.458;2024-03-08T01:25:03;5.80;99.90
25112;DHT22;13092;51.996;4.458;2024-03-08T01:27:33;5.00;99.90
25112;DHT22;13092;51.996;4.458;2024-03-08T01:30:02;4.70;99.90
25112;DHT22;13092;51.996;4.458;2024-03-08T01:32:31;5.00;99.90
25112;DHT22;13092;51.996;4.458;2024-03-08T01:35:00;5.10;99.90
25112;DHT22;13092;51.996;4.458;2024-03-08T01:37:29;4.90;99.90
25112;DHT22;13092;51.996;4.458;2024-03-08T01:39:58;5.10;99.90
25112;DHT22;13092;51.996;4.458;2024-03-08T01:42:26;4.90;99.90
25112;DHT22;13092;51.996;4.458;2024-03-08T01:44:56;4.90;99.90
25112;DHT22;13092;51.996;4.458;2024-03-08T01:47:24;5.00;99.90
25112;DHT22;13092;51.996;4.458;2024-03-08T01:49:53;4.90;99.90
25112;DHT22;13092;51.996;4.458;2024-03-08T01:52:21;4.90;99.90
25112;DHT22;13092;51.996;4.458;2024-03-08T01:54:51;4.80;99.90
25112;DHT22;13092;51.996;4.458;2024-03-08T01:57:19;4.80;99.90
25112;DHT22;13092;51.996;4.458;2024-03-08T01:59:48;5.10;99.90
25112;DHT22;13092;51.996;4.458;2024-03-08T02:02:19;5.00;99.90
25112;DHT22;13092;51.996;4.458;2024-03-08T02:04:48;4.60;99.90
25112;DHT22;13092;51.996;4.458;2024-03-08T02:07:20;4.70;99.90
25112;DHT22;13092;51.996;4.458;2024-03-08T02:09:49;4.70;99.90
25112;DHT22;13092;51.996;4.458;2024-03-08T02:12:18;5.20;99.90
25112;DHT22;13092;51.996;4.458;2024-03-08T02:14:47;4.70;99.90
25112;DHT22;13092;51.996;4.458;2024-03-08T02:17:16;5.00;99.90
25112;DHT22;13092;51.996;4.458;2024-03-08T02:19:46;5.20;99.90
25112;DHT22;13092;51.996;4.458;2024-03-08T02:22:16;4.90;99.90
25112;DHT22;13092;51.996;4.458;2024-03-08T02:24:44;4.80;99.90
25112;DHT22;13092;51.996;4.458;2024-03-08T02:27:13;4.60;99.90
25112;DHT22;13092;51.996;4.458;2024-03-08T02:29:42;4.60;99.90
25112;DHT22;13092;51.996;4.458;2024-03-08T02:32:12;4.60;99.90
25112;DHT22;13092;51.996;4.458;2024-03-08T02:34:40;4.60;99.90
25112;DHT22;13092;51.996;4.458;2024-03-08T02:37:08;4.50;99.90
25112;DHT22;13092;51.996;4.458;2024-03-08T02:39:38;4.50;99.90
25112;DHT22;13092;51.996;4.458;2024-03-08T02:42:07;4.40;99.90
25112;DHT22;13092;51.996;4.458;2024-03-08T02:44:36;4.20;99.90
25112;DHT22;13092;51.996;4.458;2024-03-08T02:47:04;4.50;99.90
25112;DHT22;13092;51.996;4.458;2024-03-08T02:49:32;4.40;99.90
25112;DHT22;13092;51.996;4.458;2024-03-08T02:52:01;4.30;99.90
25112;DHT22;13092;51.996;4.458;2024-03-08T02:54:29;4.50;99.90
25112;DHT22;13092;51.996;4.458;2024-03-08T02:56:59;4.40;99.90
25112;DHT22;13092;51.996;4.458;2024-03-08T02:59:27;4.20;99.90
25112;DHT22;13092;51.996;4.458;2024-03-08T03:01:55;4.60;99.90
25112;DHT22;13092;51.996;4.458;2024-03-08T03:04:24;4.30;99.90
25112;DHT22;13092;51.996;4.458;2024-03-08T03:06:52;4.90;99.90
25112;DHT22;13092;51.996;4.458;2024-03-08T03:09:20;4.20;99.90
25112;DHT22;13092;51.996;4.458;2024-03-08T03:11:55;4.00;99.90
25112;DHT22;13092;51.996;4.458;2024-03-08T03:14:24;4.40;99.90
25112;DHT22;13092;51.996;4.458;2024-03-08T03:16:53;4.40;99.90
25112;DHT22;13092;51.996;4.458;2024-03-08T03:19:22;4.40;99.90
25112;DHT22;13092;51.996;4.458;2024-03-08T03:21:50;4.30;99.90
25112;DHT22;13092;51.996;4.458;2024-03-08T03:24:19;4.40;99.90
25112;DHT22;13092;51.996;4.458;2024-03-08T03:26:48;4.20;99.90
25112;DHT22;13092;51.996;4.458;2024-03-08T03:29:16;4.10;99.90
25112;DHT22;13092;51.996;4.458;2024-03-08T03:31:46;4.10;99.90
25112;DHT22;13092;51.996;4.458;2024-03-08T03:34:14;4.30;99.90
25112;DHT22;13092;51.996;4.458;2024-03-08T03:36:43;4.20;99.90
25112;DHT22;13092;51.996;4.458;2024-03-08T03:39:14;3.90;99.90
25112;DHT22;13092;51.996;4.458;2024-03-08T03:41:43;4.20;99.90
25112;DHT22;13092;51.996;4.458;2024-03-08T03:44:13;4.10;99.90
25112;DHT22;13092;51.996;4.458;2024-03-08T03:46:42;4.00;99.90
25112;DHT22;13092;51.996;4.458;2024-03-08T03:49:13;3.90;99.90
25112;DHT22;13092;51.996;4.458;2024-03-08T03:51:41;4.10;99.90
25112;DHT22;13092;51.996;4.458;2024-03-08T03:54:11;4.40;99.90
25112;DHT22;13092;51.996;4.458;2024-03-08T03:56:39;3.90;99.90
25112;DHT22;13092;51.996;4.458;2024-03-08T03:59:08;3.80;99.90
25112;DHT22;13092;51.996;4.458;2024-03-08T04:01:36;3.60;99.90
25112;DHT22;13092;51.996;4.458;2024-03-08T04:04:05;4.00;99.90
25112;DHT22;13092;51.996;4.458;2024-03-08T04:06:35;3.80;99.90
25112;DHT22;13092;51.996;4.458;2024-03-08T04:09:03;3.80;99.90
25112;DHT22;13092;51.996;4.458;2024-03-08T04:11:32;3.80;99.90
25112;DHT22;13092;51.996;4.458;2024-03-08T04:14:01;3.80;99.90
25112;DHT22;13092;51.996;4.458;2024-03-08T04:16:29;3.90;99.90
25112;DHT22;13092;51.996;4.458;2024-03-08T04:18:57;3.90;99.90
25112;DHT22;13092;51.996;4.458;2024-03-08T04:21:25;3.70;99.90
25112;DHT22;13092;51.996;4.458;2024-03-08T04:23:55;3.70;99.90
25112;DHT22;13092;51.996;4.458;2024-03-08T04:26:23;3.70;99.90
25112;DHT22;13092;51.996;4.458;2024-03-08T04:28:52;3.60;99.90
25112;DHT22;13092;51.996;4.458;2024-03-08T04:31:21;3.80;99.90
25112;DHT22;13092;51.996;4.458;2024-03-08T04:33:49;3.40;99.90
25112;DHT22;13092;51.996;4.458;2024-03-08T04:36:18;3.80;99.90
25112;DHT22;13092;51.996;4.458;2024-03-08T04:38:46;3.80;99.90
25112;DHT22;13092;51.996;4.458;2024-03-08T04:41:16;3.70;99.90
25112;DHT22;13092;51.996;4.458;2024-03-08T04:43:45;3.50;99.90
25112;DHT22;13092;51.996;4.458;2024-03-08T04:46:13;3.70;99.90
25112;DHT22;13092;51.996;4.458;2024-03-08T04:48:41;3.60;99.90
25112;DHT22;13092;51.996;4.458;2024-03-08T04:51:10;4.40;99.90
25112;DHT22;13092;51.996;4.458;2024-03-08T04:53:39;3.70;99.90
25112;DHT22;13092;51.996;4.458;2024-03-08T04:56:07;3.60;99.90
25112;DHT22;13092;51.996;4.458;2024-03-08T04:58:37;3.70;99.90
25112;DHT22;13092;51.996;4.458;2024-03-08T05:01:05;3.40;99.90
25112;DHT22;13092;51.996;4.458;2024-03-08T05:03:37;3.40;99.90
25112;DHT22;13092;51.996;4.458;2024-03-08T05:06:06;3.50;99.90
25112;DHT22;13092;51.996;4.458;2024-03-08T05:08:35;3.40;99.90
25112;DHT22;13092;51.996;4.458;2024-03-08T05:11:05;3.40;99.90
25112;DHT22;13092;51.996;4.458;2024-03-08T05:13:34;3.90;99.90
25112;DHT22;13092;51.996;4.458;2024-03-08T05:16:04;3.40;99.90
25112;DHT22;13092;51.996;4.458;2024-03-08T05:18:34;3.40;99.90
25112;DHT22;13092;51.996;4.458;2024-03-08T05:21:03;3.60;99.90
25112;DHT22;13092;51.996;4.458;2024-03-08T05:23:31;3.40;99.90
25112;DHT22;13092;51.996;4.458;2024-03-08T05:26:01;3.30;99.90
25112;DHT22;13092;51.996;4.458;2024-03-08T05:28:30;3.30;99.90
25112;DHT22;13092;51.996;4.458;2024-03-08T05:30:58;3.40;99.90
25112;DHT22;13092;51.996;4.458;2024-03-08T05:33:28;3.90;99.90
25112;DHT22;13092;51.996;4.458;2024-03-08T05:35:56;4.30;99.90
25112;DHT22;13092;51.996;4.458;2024-03-08T05:38:24;3.50;99.90
25112;DHT22;13092;51.996;4.458;2024-03-08T05:40:52;3.30;99.90
25112;DHT22;13092;51.996;4.458;2024-03-08T05:43:21;3.50;99.90
25112;DHT22;13092;51.996;4.458;2024-03-08T05:45:49;4.40;99.90
25112;DHT22;13092;51.996;4.458;2024-03-08T05:48:17;3.20;99.90
25112;DHT22;13092;51.996;4.458;2024-03-08T05:50:47;3.70;99.90
25112;DHT22;13092;51.996;4.458;2024-03-08T05:53:15;3.80;99.90
25112;DHT22;13092;51.996;4.458;2024-03-08T05:55:44;3.40;99.90
25112;DHT22;13092;51.996;4.458;2024-03-08T05:58:12;3.30;99.90
25112;DHT22;13092;51.996;4.458;2024-03-08T06:00:40;3.30;99.90
25112;DHT22;13092;51.996;4.458;2024-03-08T06:03:09;3.20;99.90
25112;DHT22;13092;51.996;4.458;2024-03-08T06:05:38;3.10;99.90
25112;DHT22;13092;51.996;4.458;2024-03-08T06:08:10;3.10;99.90
25112;DHT22;13092;51.996;4.458;2024-03-08T06:10:38;3.30;99.90
25112;DHT22;13092;51.996;4.458;2024-03-08T06:13:06;3.30;99.90
25112;DHT22;13092;51.996;4.458;2024-03-08T06:15:35;3.10;99.90
25112;DHT22;13092;51.996;4.458;2024-03-08T06:18:03;3.90;99.90
25112;DHT22;13092;51.996;4.458;2024-03-08T06:20:33;3.10;99.90
25112;DHT22;13092;51.996;4.458;2024-03-08T06:23:01;3.00;99.90
25112;DHT22;13092;51.996;4.458;2024-03-08T06:25:31;3.20;99.90
25112;DHT22;13092;51.996;4.458;2024-03-08T06:27:59;3.10;99.90
25112;DHT22;13092;51.996;4.458;2024-03-08T06:30:27;3.20;99.90
25112;DHT22;13092;51.996;4.458;2024-03-08T06:32:55;3.80;99.90
25112;DHT22;13092;51.996;4.458;2024-03-08T06:35:24;3.70;99.90
25112;DHT22;13092;51.996;4.458;2024-03-08T06:37:52;3.10;99.90
25112;DHT22;13092;51.996;4.458;2024-03-08T06:40:21;3.20;99.90
25112;DHT22;13092;51.996;4.458;2024-03-08T06:42:52;3.20;99.90
25112;DHT22;13092;51.996;4.458;2024-03-08T06:45:21;3.20;99.90
25112;DHT22;13092;51.996;4.458;2024-03-08T06:47:50;3.10;99.90
25112;DHT22;13092;51.996;4.458;2024-03-08T06:50:20;3.40;99.90
25112;DHT22;13092;51.996;4.458;2024-03-08T06:52:49;3.10;99.90
25112;DHT22;13092;51.996;4.458;2024-03-08T06:55:20;3.10;99.90
25112;DHT22;13092;51.996;4.458;2024-03-08T06:57:49;3.60;99.90
25112;DHT22;13092;51.996;4.458;2024-03-08T07:00:22;3.20;99.90
25112;DHT22;13092;51.996;4.458;2024-03-08T07:02:55;4.00;99.90
25112;DHT22;13092;51.996;4.458;2024-03-08T07:05:28;3.30;99.90
25112;DHT22;13092;51.996;4.458;2024-03-08T07:07:58;3.20;99.90
25112;DHT22;13092;51.996;4.458;2024-03-08T07:10:26;3.30;99.90
25112;DHT22;13092;51.996;4.458;2024-03-08T07:12:56;3.40;99.90
25112;DHT22;13092;51.996;4.458;2024-03-08T07:15:25;3.40;99.90
25112;DHT22;13092;51.996;4.458;2024-03-08T07:17:55;3.30;99.90
25112;DHT22;13092;51.996;4.458;2024-03-08T07:20:24;3.40;99.90
25112;DHT22;13092;51.996;4.458;2024-03-08T07:22:57;3.40;99.90
25112;DHT22;13092;51.996;4.458;2024-03-08T07:25:25;3.40;99.90
25112;DHT22;13092;51.996;4.458;2024-03-08T07:27:56;3.40;99.90
25112;DHT22;13092;51.996;4.458;2024-03-08T07:30:27;3.60;99.90
25112;DHT22;13092;51.996;4.458;2024-03-08T07:33:13;3.50;99.90
25112;DHT22;13092;51.996;4.458;2024-03-08T07:35:42;3.50;99.90
25112;DHT22;13092;51.996;4.458;2024-03-08T07:38:11;3.60;99.90
25112;DHT22;13092;51.996;4.458;2024-03-08T07:40:40;3.70;99.90
25112;DHT22;13092;51.996;4.458;2024-03-08T07:43:11;3.80;99.90
25112;DHT22;13092;51.996;4.458;2024-03-08T07:45:44;3.90;99.90
25112;DHT22;13092;51.996;4.458;2024-03-08T07:48:12;3.80;99.90
25112;DHT22;13092;51.996;4.458;2024-03-08T07:50:40;3.70;99.90
25112;DHT22;13092;51.996;4.458;2024-03-08T07:53:10;4.00;99.90
25112;DHT22;13092;51.996;4.458;2024-03-08T07:55:38;3.80;99.90
25112;DHT22;13092;51.996;4.458;2024-03-08T07:58:09;3.90;99.90
25112;DHT22;13092;51.996;4.458;2024-03-08T08:00:38;4.10;99.90
25112;DHT22;13092;51.996;4.458;2024-03-08T08:03:07;4.10;99.90
25112;DHT22;13092;51.996;4.458;2024-03-08T08:05:38;4.30;99.90
25112;DHT22;13092;51.996;4.458;2024-03-08T08:08:07;4.20;99.90
25112;DHT22;13092;51.996;4.458;2024-03-08T08:10:38;4.00;99.90
25112;DHT22;13092;51.996;4.458;2024-03-08T08:13:06;4.90;99.90
25112;DHT22;13092;51.996;4.458;2024-03-08T08:15:34;4.10;99.90
25112;DHT22;13092;51.996;4.458;2024-03-08T08:18:03;4.30;99.90
25112;DHT22;13092;51.996;4.458;2024-03-08T08:20:35;4.10;99.90
25112;DHT22;13092;51.996;4.458;2024-03-08T08:23:04;4.20;99.90
25112;DHT22;13092;51.996;4.458;2024-03-08T08:25:33;4.30;99.90
25112;DHT22;13092;51.996;4.458;2024-03-08T08:28:03;4.30;99.90
25112;DHT22;13092;51.996;4.458;2024-03-08T08:30:32;4.30;99.90
25112;DHT22;13092;51.996;4.458;2024-03-08T08:33:01;4.40;99.90
25112;DHT22;13092;51.996;4.458;2024-03-08T08:35:29;5.30;99.90
25112;DHT22;13092;51.996;4.458;2024-03-08T08:37:59;4.60;99.90
25112;DHT22;13092;51.996;4.458;2024-03-08T08:40:28;4.50;99.90
25112;DHT22;13092;51.996;4.458;2024-03-08T08:42:57;5.00;99.90
25112;DHT22;13092;51.996;4.458;2024-03-08T08:45:26;4.50;99.90
25112;DHT22;13092;51.996;4.458;2024-03-08T08:47:55;4.90;99.90
25112;DHT22;13092;51.996;4.458;2024-03-08T08:50:23;4.80;99.90
25112;DHT22;13092;51.996;4.458;2024-03-08T08:52:55;4.70;99.90
25112;DHT22;13092;51.996;4.458;2024-03-08T08:55:25;5.00;99.90
25112;DHT22;13092;51.996;4.458;2024-03-08T08:57:54;4.90;99.90
25112;DHT22;13092;51.996;4.458;2024-03-08T09:00:23;4.70;99.90
25112;DHT22;13092;51.996;4.458;2024-03-08T09:02:55;4.90;99.90
25112;DHT22;13092;51.996;4.458;2024-03-08T09:05:28;5.20;99.90
25112;DHT22;13092;51.996;4.458;2024-03-08T09:08:05;5.30;99.90
25112;DHT22;13092;51.996;4.458;2024-03-08T09:10:36;5.20;99.90
25112;DHT22;13092;51.996;4.458;2024-03-08T09:13:06;5.20;99.90
25112;DHT22;13092;51.996;4.458;2024-03-08T09:15:43;5.90;99.90
25112;DHT22;13092;51.996;4.458;2024-03-08T09:18:12;5.30;99.90
25112;DHT22;13092;51.996;4.458;2024-03-08T09:20:43;5.30;99.90
25112;DHT22;13092;51.996;4.458;2024-03-08T09:23:11;5.60;99.90
25112;DHT22;13092;51.996;4.458;2024-03-08T09:25:40;5.80;99.90
25112;DHT22;13092;51.996;4.458;2024-03-08T09:28:12;5.60;99.90
25112;DHT22;13092;51.996;4.458;2024-03-08T09:30:40;5.70;99.90
25112;DHT22;13092;51.996;4.458;2024-03-08T09:33:22;5.70;99.90
25112;DHT22;13092;51.996;4.458;2024-03-08T09:35:50;5.90;99.90
25112;DHT22;13092;51.996;4.458;2024-03-08T09:38:20;5.90;99.90
25112;DHT22;13092;51.996;4.458;2024-03-08T09:40:49;6.20;99.90
25112;DHT22;13092;51.996;4.458;2024-03-08T09:43:18;6.00;99.90
25112;DHT22;13092;51.996;4.458;2024-03-08T09:45:49;6.00;99.90
25112;DHT22;13092;51.996;4.458;2024-03-08T09:48:18;6.20;99.90
25112;DHT22;13092;51.996;4.458;2024-03-08T09:50:47;6.20;99.90
25112;DHT22;13092;51.996;4.458;2024-03-08T09:53:16;6.20;99.90
25112;DHT22;13092;51.996;4.458;2024-03-08T09:55:44;6.30;99.90
25112;DHT22;13092;51.996;4.458;2024-03-08T09:58:15;6.40;99.90
25112;DHT22;13092;51.996;4.458;2024-03-08T10:00:58;6.40;99.90
25112;DHT22;13092;51.996;4.458;2024-03-08T10:03:34;6.50;99.90
25112;DHT22;13092;51.996;4.458;2024-03-08T10:06:06;6.60;99.90
25112;DHT22;13092;51.996;4.458;2024-03-08T10:08:37;6.60;99.90
25112;DHT22;13092;51.996;4.458;2024-03-08T10:11:10;6.70;99.90
25112;DHT22;13092;51.996;4.458;2024-03-08T10:13:41;6.70;99.90
25112;DHT22;13092;51.996;4.458;2024-03-08T10:16:09;6.90;99.90
25112;DHT22;13092;51.996;4.458;2024-03-08T10:18:44;6.80;99.90
25112;DHT22;13092;51.996;4.458;2024-03-08T10:21:13;6.80;99.90
25112;DHT22;13092;51.996;4.458;2024-03-08T10:23:42;6.90;99.90
25112;DHT22;13092;51.996;4.458;2024-03-08T10:26:12;7.00;99.90
25112;DHT22;13092;51.996;4.458;2024-03-08T10:28:44;7.20;99.90
25112;DHT22;13092;51.996;4.458;2024-03-08T10:31:14;6.90;99.90
25112;DHT22;13092;51.996;4.458;2024-03-08T10:33:45;7.20;99.90
25112;DHT22;13092;51.996;4.458;2024-03-08T10:36:14;7.20;99.90
25112;DHT22;13092;51.996;4.458;2024-03-08T10:38:43;7.30;99.90
25112;DHT22;13092;51.996;4.458;2024-03-08T10:41:15;7.30;99.90
25112;DHT22;13092;51.996;4.458;2024-03-08T10:43:57;7.40;99.90
25112;DHT22;13092;51.996;4.458;2024-03-08T10:46:43;7.40;99.90
25112;DHT22;13092;51.996;4.458;2024-03-08T10:49:17;7.50;99.90
25112;DHT22;13092;51.996;4.458;2024-03-08T10:51:46;7.80;99.90
25112;DHT22;13092;51.996;4.458;2024-03-08T10:54:16;8.00;99.90
25112;DHT22;13092;51.996;4.458;2024-03-08T10:56:48;7.70;99.90
25112;DHT22;13092;51.996;4.458;2024-03-08T10:59:19;7.80;99.90
25112;DHT22;13092;51.996;4.458;2024-03-08T11:01:48;7.90;99.90
25112;DHT22;13092;51.996;4.458;2024-03-08T11:04:17;8.00;99.90
25112;DHT22;13092;51.996;4.458;2024-03-08T11:06:50;8.10;99.90
25112;DHT22;13092;51.996;4.458;2024-03-08T11:09:28;8.20;99.90
25112;DHT22;13092;51.996;4.458;2024-03-08T11:12:27;8.70;99.90
25112;DHT22;13092;51.996;4.458;2024-03-08T11:15:01;8.30;99.90
25112;DHT22;13092;51.996;4.458;2024-03-08T11:17:44;8.30;99.90
25112;DHT22;13092;51.996;4.458;2024-03-08T11:20:13;8.60;99.90
25112;DHT22;13092;51.996;4.458;2024-03-08T11:22:48;8.50;99.90
25112;DHT22;13092;51.996;4.458;2024-03-08T11:25:32;8.60;99.90
25112;DHT22;13092;51.996;4.458;2024-03-08T11:28:07;8.70;99.90
25112;DHT22;13092;51.996;4.458;2024-03-08T11:30:37;9.00;99.90
25112;DHT22;13092;51.996;4.458;2024-03-08T11:33:11;8.90;99.90
25112;DHT22;13092;51.996;4.458;2024-03-08T11:35:41;9.20;99.90
25112;DHT22;13092;51.996;4.458;2024-03-08T11:38:13;9.20;99.90
25112;DHT22;13092;51.996;4.458;2024-03-08T11:40:46;9.30;99.90
25112;DHT22;13092;51.996;4.458;2024-03-08T11:43:16;9.30;99.90
25112;DHT22;13092;51.996;4.458;2024-03-08T11:45:46;9.40;99.90
25112;DHT22;13092;51.996;4.458;2024-03-08T11:48:14;9.60;99.90
25112;DHT22;13092;51.996;4.458;2024-03-08T11:50:42;9.40;99.90
25112;DHT22;13092;51.996;4.458;2024-03-08T11:53:11;9.50;99.90
25112;DHT22;13092;51.996;4.458;2024-03-08T11:55:40;9.50;99.90
25112;DHT22;13092;51.996;4.458;2024-03-08T11:58:09;9.60;92.50
25112;DHT22;13092;51.996;4.458;2024-03-08T12:00:40;9.70;94.60
25112;DHT22;13092;51.996;4.458;2024-03-08T12:03:09;9.70;95.90
25112;DHT22;13092;51.996;4.458;2024-03-08T12:05:38;9.80;98.20
25112;DHT22;13092;51.996;4.458;2024-03-08T12:08:08;10.00;91.00
25112;DHT22;13092;51.996;4.458;2024-03-08T12:10:40;9.80;90.70
25112;DHT22;13092;51.996;4.458;2024-03-08T12:13:09;9.90;91.40
25112;DHT22;13092;51.996;4.458;2024-03-08T12:15:40;10.10;93.20
25112;DHT22;13092;51.996;4.458;2024-03-08T12:18:12;10.10;92.30
25112;DHT22;13092;51.996;4.458;2024-03-08T12:20:41;10.10;90.90
25112;DHT22;13092;51.996;4.458;2024-03-08T12:23:15;10.10;87.00
25112;DHT22;13092;51.996;4.458;2024-03-08T12:25:44;10.20;99.60
25112;DHT22;13092;51.996;4.458;2024-03-08T12:28:14;10.20;93.80
25112;DHT22;13092;51.996;4.458;2024-03-08T12:30:48;10.20;83.10
25112;DHT22;13092;51.996;4.458;2024-03-08T12:33:19;10.30;80.60
25112;DHT22;13092;51.996;4.458;2024-03-08T12:35:51;10.40;77.80
25112;DHT22;13092;51.996;4.458;2024-03-08T12:38:23;10.60;77.50
25112;DHT22;13092;51.996;4.458;2024-03-08T12:40:55;10.70;94.80
25112;DHT22;13092;51.996;4.458;2024-03-08T12:43:24;10.60;90.10
25112;DHT22;13092;51.996;4.458;2024-03-08T12:45:55;10.60;90.80
25112;DHT22;13092;51.996;4.458;2024-03-08T12:48:25;10.60;75.40
25112;DHT22;13092;51.996;4.458;2024-03-08T12:50:53;10.70;63.90
25112;DHT22;13092;51.996;4.458;2024-03-08T12:53:22;10.60;74.30
25112;DHT22;13092;51.996;4.458;2024-03-08T12:55:52;10.90;82.80
25112;DHT22;13092;51.996;4.458;2024-03-08T12:58:23;10.70;62.30
25112;DHT22;13092;51.996;4.458;2024-03-08T13:00:52;10.80;91.10
25112;DHT22;13092;51.996;4.458;2024-03-08T13:03:21;10.90;79.00
25112;DHT22;13092;51.996;4.458;2024-03-08T13:05:51;10.90;97.70
25112;DHT22;13092;51.996;4.458;2024-03-08T13:08:20;11.00;90.80
25112;DHT22;13092;51.996;4.458;2024-03-08T13:10:51;11.00;82.80
25112;DHT22;13092;51.996;4.458;2024-03-08T13:13:23;11.00;86.50
25112;DHT22;13092;51.996;4.458;2024-03-08T13:15:51;11.00;79.50
25112;DHT22;13092;51.996;4.458;2024-03-08T13:18:20;11.20;50.80
25112;DHT22;13092;51.996;4.458;2024-03-08T13:20:48;11.10;84.70
25112;DHT22;13092;51.996;4.458;2024-03-08T13:23:20;11.30;99.90
25112;DHT22;13092;51.996;4.458;2024-03-08T13:25:49;11.30;86.80
25112;DHT22;13092;51.996;4.458;2024-03-08T13:28:17;11.20;55.00
25112;DHT22;13092;51.996;4.458;2024-03-08T13:30:50;11.20;64.90
25112;DHT22;13092;51.996;4.458;2024-03-08T13:33:25;11.30;65.70
25112;DHT22;13092;51.996;4.458;2024-03-08T13:35:54;11.30;67.40
25112;DHT22;13092;51.996;4.458;2024-03-08T13:38:32;11.30;96.00
25112;DHT22;13092;51.996;4.458;2024-03-08T13:41:03;11.30;93.40
25112;DHT22;13092;51.996;4.458;2024-03-08T13:43:31;11.30;70.40
25112;DHT22;13092;51.996;4.458;2024-03-08T13:46:01;11.40;92.60
25112;DHT22;13092;51.996;4.458;2024-03-08T13:48:30;11.30;97.70
25112;DHT22;13092;51.996;4.458;2024-03-08T13:50:59;11.30;82.00
25112;DHT22;13092;51.996;4.458;2024-03-08T13:53:27;11.50;71.20
25112;DHT22;13092;51.996;4.458;2024-03-08T13:55:57;11.40;68.70
25112;DHT22;13092;51.996;4.458;2024-03-08T13:58:27;11.30;80.50
25112;DHT22;13092;51.996;4.458;2024-03-08T14:00:55;11.40;91.80
25112;DHT22;13092;51.996;4.458;2024-03-08T14:03:23;11.40;68.90
25112;DHT22;13092;51.996;4.458;2024-03-08T14:05:52;11.40;67.70
25112;DHT22;13092;51.996;4.458;2024-03-08T14:08:22;11.50;42.40
25112;DHT22;13092;51.996;4.458;2024-03-08T14:10:52;11.60;99.90
25112;DHT22;13092;51.996;4.458;2024-03-08T14:13:22;11.40;51.00
25112;DHT22;13092;51.996;4.458;2024-03-08T14:15:54;11.40;57.70
25112;DHT22;13092;51.996;4.458;2024-03-08T14:18:27;11.40;47.70
25112;DHT22;13092;51.996;4.458;2024-03-08T14:21:05;11.40;68.40
25112;DHT22;13092;51.996;4.458;2024-03-08T14:23:43;11.40;59.20
25112;DHT22;13092;51.996;4.458;2024-03-08T14:26:15;11.30;76.40
25112;DHT22;13092;51.996;4.458;2024-03-08T14:28:47;11.40;67.60
25112;DHT22;13092;51.996;4.458;2024-03-08T14:31:18;11.40;59.00
25112;DHT22;13092;51.996;4.458;2024-03-08T14:33:53;11.50;46.80
25112;DHT22;13092;51.996;4.458;2024-03-08T14:36:22;11.60;82.50
25112;DHT22;13092;51.996;4.458;2024-03-08T14:38:52;11.50;29.60
25112;DHT22;13092;51.996;4.458;2024-03-08T14:41:20;11.60;71.20
25112;DHT22;13092;51.996;4.458;2024-03-08T14:43:53;11.70;37.30
25112;DHT22;13092;51.996;4.458;2024-03-08T14:46:23;11.70;99.90
25112;DHT22;13092;51.996;4.458;2024-03-08T14:48:53;11.60;90.70
25112;DHT22;13092;51.996;4.458;2024-03-08T14:51:23;11.90;92.30
25112;DHT22;13092;51.996;4.458;2024-03-08T14:53:53;11.60;46.40
25112;DHT22;13092;51.996;4.458;2024-03-08T14:56:22;11.60;43.30
25112;DHT22;13092;51.996;4.458;2024-03-08T14:58:55;11.60;50.80
25112;DHT22;13092;51.996;4.458;2024-03-08T15:01:26;11.70;46.00
25112;DHT22;13092;51.996;4.458;2024-03-08T15:03:59;11.70;30.00
25112;DHT22;13092;51.996;4.458;2024-03-08T15:06:35;11.70;21.40
25112;DHT22;13092;51.996;4.458;2024-03-08T15:09:04;11.80;47.80
25112;DHT22;13092;51.996;4.458;2024-03-08T15:11:38;11.80;27.10
25112;DHT22;13092;51.996;4.458;2024-03-08T15:14:08;11.80;16.70
25112;DHT22;13092;51.996;4.458;2024-03-08T15:16:38;11.80;52.30
25112;DHT22;13092;51.996;4.458;2024-03-08T15:19:07;12.00;16.90
25112;DHT22;13092;51.996;4.458;2024-03-08T15:21:35;11.70;57.70
25112;DHT22;13092;51.996;4.458;2024-03-08T15:24:03;11.60;38.30
25112;DHT22;13092;51.996;4.458;2024-03-08T15:26:37;11.70;40.20
25112;DHT22;13092;51.996;4.458;2024-03-08T15:29:05;11.60;31.60
25112;DHT22;13092;51.996;4.458;2024-03-08T15:31:35;11.50;16.50
25112;DHT22;13092;51.996;4.458;2024-03-08T15:34:05;11.60;11.40
25112;DHT22;13092;51.996;4.458;2024-03-08T15:36:34;11.70;31.60
25112;DHT22;13092;51.996;4.458;2024-03-08T15:39:02;11.60;12.00
25112;DHT22;13092;51.996;4.458;2024-03-08T15:41:36;11.70;24.40
25112;DHT22;13092;51.996;4.458;2024-03-08T15:44:05;11.70;87.20
25112;DHT22;13092;51.996;4.458;2024-03-08T15:46:40;11.60;44.70
25112;DHT22;13092;51.996;4.458;2024-03-08T15:49:09;11.70;10.70
25112;DHT22;13092;51.996;4.458;2024-03-08T15:51:46;11.70;37.80
25112;DHT22;13092;51.996;4.458;2024-03-08T15:54:16;11.70;10.30
25112;DHT22;13092;51.996;4.458;2024-03-08T15:56:47;11.70;10.90
25112;DHT22;13092;51.996;4.458;2024-03-08T15:59:18;11.70;24.60